sensor_id;sensor_type;location;lat;lon;timestamp;P1;durP1;ratioP1;P2;durP2;ratioP2
20857;SDS011;10589;53.636;10.012;2022-08-25T03:47:20;7.13;;;6.25;;
20857;SDS011;10589;53.636;10.012;2022-08-25T03:49:49;9.25;;;6.90;;
20857;SDS011;10589;53.636;10.012;2022-08-25T03:52:15;12.00;;;7.00;;
20857;SDS011;10589;53.636;10.012;2022-08-25T03:54:42;9.85;;;6.82;;
20857;SDS011;10589;53.636;10.012;2022-08-25T03:57:08;8.43;;;6.50;;
20857;SDS011;10589;53.636;10.012;2022-08-25T03:59:34;11.10;;;6.80;;
20857;SDS011;10589;53.636;10.012;2022-08-25T04:02:03;8.35;;;7.03;;
20857;SDS011;10589;53.636;10.012;2022-08-25T04:04:29;8.23;;;6.82;;
20857;SDS011;10589;53.636;10.012;2022-08-25T04:06:55;10.23;;;7.32;;
20857;SDS011;10589;53.636;10.012;2022-08-25T04:09:20;8.15;;;7.35;;
20857;SDS011;10589;53.636;10.012;2022-08-25T04:11:46;13.27;;;7.53;;
20857;SDS011;10589;53.636;10.012;2022-08-25T04:14:12;10.70;;;7.70;;
20857;SDS011;10589;53.636;10.012;2022-08-25T04:16:38;10.07;;;7.63;;
20857;SDS011;10589;53.636;10.012;2022-08-25T04:19:04;11.73;;;7.50;;
20857;SDS011;10589;53.636;10.012;2022-08-25T04:21:33;10.63;;;8.15;;
20857;SDS011;10589;53.636;10.012;2022-08-25T04:24:00;11.30;;;7.82;;
20857;SDS011;10589;53.636;10.012;2022-08-25T04:26:30;10.43;;;8.18;;
20857;SDS011;10589;53.636;10.012;2022-08-25T04:28:59;15.45;;;8.20;;
20857;SDS011;10589;53.636;10.012;2022-08-25T04:31:27;10.02;;;7.93;;
20857;SDS011;10589;53.636;10.012;2022-08-25T04:33:54;11.20;;;7.35;;
20857;SDS011;10589;53.636;10.012;2022-08-25T04:36:20;9.73;;;8.73;;
20857;SDS011;10589;53.636;10.012;2022-08-25T04:38:46;8.70;;;7.82;;
20857;SDS011;10589;53.636;10.012;2022-08-25T04:41:14;8.60;;;6.82;;
20857;SDS011;10589;53.636;10.012;2022-08-25T04:43:42;8.98;;;7.63;;
20857;SDS011;10589;53.636;10.012;2022-08-25T04:46:13;8.82;;;7.57;;
20857;SDS011;10589;53.636;10.012;2022-08-25T04:48:40;8.95;;;7.32;;
20857;SDS011;10589;53.636;10.012;2022-08-25T04:51:07;11.68;;;7.85;;
20857;SDS011;10589;53.636;10.012;2022-08-25T04:53:35;7.97;;;7.13;;
20857;SDS011;10589;53.636;10.012;2022-08-25T04:56:04;9.18;;;8.02;;
20857;SDS011;10589;53.636;10.012;2022-08-25T04:58:30;9.57;;;6.75;;
20857;SDS011;10589;53.636;10.012;2022-08-25T05:01:03;8.25;;;7.45;;
20857;SDS011;10589;53.636;10.012;2022-08-25T05:03:29;9.75;;;6.35;;
20857;SDS011;10589;53.636;10.012;2022-08-25T05:05:55;14.85;;;7.90;;
20857;SDS011;10589;53.636;10.012;2022-08-25T05:08:21;8.43;;;7.32;;
20857;SDS011;10589;53.636;10.012;2022-08-25T05:10:47;11.85;;;8.70;;
20857;SDS011;10589;53.636;10.012;2022-08-25T05:13:13;11.68;;;8.68;;
20857;SDS011;10589;53.636;10.012;2022-08-25T05:15:38;11.63;;;8.27;;
20857;SDS011;10589;53.636;10.012;2022-08-25T05:18:17;10.13;;;8.82;;
20857;SDS011;10589;53.636;10.012;2022-08-25T05:20:43;9.50;;;8.20;;
20857;SDS011;10589;53.636;10.012;2022-08-25T05:23:09;17.40;;;8.98;;
20857;SDS011;10589;53.636;10.012;2022-08-25T05:25:35;11.27;;;8.43;;
20857;SDS011;10589;53.636;10.012;2022-08-25T05:28:00;11.30;;;8.27;;
20857;SDS011;10589;53.636;10.012;2022-08-25T05:30:27;13.23;;;9.27;;
20857;SDS011;10589;53.636;10.012;2022-08-25T05:32:52;10.52;;;8.73;;
20857;SDS011;10589;53.636;10.012;2022-08-25T05:35:18;10.27;;;9.02;;
20857;SDS011;10589;53.636;10.012;2022-08-25T05:37:44;13.77;;;9.75;;
20857;SDS011;10589;53.636;10.012;2022-08-25T05:40:10;14.23;;;9.57;;
20857;SDS011;10589;53.636;10.012;2022-08-25T05:42:36;11.40;;;9.13;;
20857;SDS011;10589;53.636;10.012;2022-08-25T05:45:05;13.13;;;9.90;;
20857;SDS011;10589;53.636;10.012;2022-08-25T05:47:32;11.70;;;10.60;;
20857;SDS011;10589;53.636;10.012;2022-08-25T05:49:58;12.68;;;10.27;;
20857;SDS011;10589;53.636;10.012;2022-08-25T05:52:25;14.57;;;10.20;;
20857;SDS011;10589;53.636;10.012;2022-08-25T05:54:51;14.32;;;11.25;;
20857;SDS011;10589;53.636;10.012;2022-08-25T05:57:17;13.73;;;10.63;;
20857;SDS011;10589;53.636;10.012;2022-08-25T05:59:43;16.98;;;11.15;;
20857;SDS011;10589;53.636;10.012;2022-08-25T06:02:09;11.50;;;10.02;;
20857;SDS011;10589;53.636;10.012;2022-08-25T06:04:53;13.52;;;11.15;;
20857;SDS011;10589;53.636;10.012;2022-08-25T06:07:19;15.50;;;12.18;;
20857;SDS011;10589;53.636;10.012;2022-08-25T06:09:45;17.42;;;12.18;;
20857;SDS011;10589;53.636;10.012;2022-08-25T06:12:13;12.88;;;11.50;;
20857;SDS011;10589;53.636;10.012;2022-08-25T06:14:39;16.80;;;12.40;;
20857;SDS011;10589;53.636;10.012;2022-08-25T06:17:05;17.73;;;13.15;;
20857;SDS011;10589;53.636;10.012;2022-08-25T06:19:30;18.30;;;13.32;;
20857;SDS011;10589;53.636;10.012;2022-08-25T06:21:56;15.05;;;12.45;;
20857;SDS011;10589;53.636;10.012;2022-08-25T06:24:23;14.52;;;12.55;;
20857;SDS011;10589;53.636;10.012;2022-08-25T06:26:52;16.75;;;14.57;;
20857;SDS011;10589;53.636;10.012;2022-08-25T06:29:18;18.27;;;14.25;;
20857;SDS011;10589;53.636;10.012;2022-08-25T06:31:45;16.70;;;13.45;;
20857;SDS011;10589;53.636;10.012;2022-08-25T06:34:11;16.17;;;13.00;;
20857;SDS011;10589;53.636;10.012;2022-08-25T06:36:37;20.13;;;14.70;;
20857;SDS011;10589;53.636;10.012;2022-08-25T06:39:03;15.63;;;13.38;;
20857;SDS011;10589;53.636;10.012;2022-08-25T06:41:29;15.15;;;13.27;;
20857;SDS011;10589;53.636;10.012;2022-08-25T06:43:55;15.20;;;12.25;;
20857;SDS011;10589;53.636;10.012;2022-08-25T06:46:22;15.60;;;13.35;;
20857;SDS011;10589;53.636;10.012;2022-08-25T06:48:51;17.35;;;13.27;;
20857;SDS011;10589;53.636;10.012;2022-08-25T06:51:18;17.23;;;12.32;;
20857;SDS011;10589;53.636;10.012;2022-08-25T06:53:46;15.70;;;12.77;;
20857;SDS011;10589;53.636;10.012;2022-08-25T06:56:13;13.05;;;11.65;;
20857;SDS011;10589;53.636;10.012;2022-08-25T06:58:40;13.50;;;12.15;;
20857;SDS011;10589;53.636;10.012;2022-08-25T07:01:13;14.30;;;11.23;;
20857;SDS011;10589;53.636;10.012;2022-08-25T07:03:41;14.77;;;11.38;;
20857;SDS011;10589;53.636;10.012;2022-08-25T07:06:08;12.25;;;10.95;;
20857;SDS011;10589;53.636;10.012;2022-08-25T07:08:34;12.43;;;10.98;;
20857;SDS011;10589;53.636;10.012;2022-08-25T07:11:07;13.02;;;11.23;;
20857;SDS011;10589;53.636;10.012;2022-08-25T07:13:34;12.93;;;11.15;;
20857;SDS011;10589;53.636;10.012;2022-08-25T07:16:02;15.60;;;11.73;;
20857;SDS011;10589;53.636;10.012;2022-08-25T07:18:29;16.02;;;11.45;;
20857;SDS011;10589;53.636;10.012;2022-08-25T07:20:55;12.35;;;10.20;;
20857;SDS011;10589;53.636;10.012;2022-08-25T07:23:22;13.60;;;11.85;;
20857;SDS011;10589;53.636;10.012;2022-08-25T07:25:48;15.43;;;11.77;;
20857;SDS011;10589;53.636;10.012;2022-08-25T07:28:15;13.50;;;12.10;;
20857;SDS011;10589;53.636;10.012;2022-08-25T07:30:42;13.38;;;12.07;;
20857;SDS011;10589;53.636;10.012;2022-08-25T07:33:08;14.60;;;12.05;;
20857;SDS011;10589;53.636;10.012;2022-08-25T07:35:34;15.60;;;11.60;;
20857;SDS011;10589;53.636;10.012;2022-08-25T07:38:01;13.73;;;12.13;;
20857;SDS011;10589;53.636;10.012;2022-08-25T07:40:31;14.55;;;12.13;;
20857;SDS011;10589;53.636;10.012;2022-08-25T07:42:59;11.90;;;10.80;;
20857;SDS011;10589;53.636;10.012;2022-08-25T07:45:29;14.98;;;11.38;;
20857;SDS011;10589;53.636;10.012;2022-08-25T07:47:57;12.68;;;10.75;;
20857;SDS011;10589;53.636;10.012;2022-08-25T07:50:43;10.65;;;9.40;;
20857;SDS011;10589;53.636;10.012;2022-08-25T07:53:12;10.25;;;8.90;;
20857;SDS011;10589;53.636;10.012;2022-08-25T07:55:39;12.05;;;10.52;;
20857;SDS011;10589;53.636;10.012;2022-08-25T07:58:06;12.00;;;9.45;;
20857;SDS011;10589;53.636;10.012;2022-08-25T08:00:34;10.25;;;9.23;;
20857;SDS011;10589;53.636;10.012;2022-08-25T08:03:02;12.77;;;10.82;;
20857;SDS011;10589;53.636;10.012;2022-08-25T08:05:29;13.57;;;12.00;;
20857;SDS011;10589;53.636;10.012;2022-08-25T08:07:55;12.57;;;11.27;;
20857;SDS011;10589;53.636;10.012;2022-08-25T08:10:21;13.57;;;11.80;;
20857;SDS011;10589;53.636;10.012;2022-08-25T08:12:47;12.13;;;10.98;;
20857;SDS011;10589;53.636;10.012;2022-08-25T08:15:13;12.55;;;10.93;;
20857;SDS011;10589;53.636;10.012;2022-08-25T08:17:39;14.68;;;11.38;;
20857;SDS011;10589;53.636;10.012;2022-08-25T08:20:06;12.60;;;11.35;;
20857;SDS011;10589;53.636;10.012;2022-08-25T08:22:34;11.48;;;10.18;;
20857;SDS011;10589;53.636;10.012;2022-08-25T08:25:01;12.55;;;11.27;;
20857;SDS011;10589;53.636;10.012;2022-08-25T08:27:28;14.32;;;11.65;;
20857;SDS011;10589;53.636;10.012;2022-08-25T08:29:53;13.40;;;9.70;;
20857;SDS011;10589;53.636;10.012;2022-08-25T08:32:19;10.75;;;9.68;;
20857;SDS011;10589;53.636;10.012;2022-08-25T08:34:45;12.02;;;9.18;;
20857;SDS011;10589;53.636;10.012;2022-08-25T08:37:11;10.93;;;9.82;;
20857;SDS011;10589;53.636;10.012;2022-08-25T08:39:37;11.88;;;9.38;;
20857;SDS011;10589;53.636;10.012;2022-08-25T08:55:42;12.13;;;10.50;;
20857;SDS011;10589;53.636;10.012;2022-08-25T08:58:16;11.20;;;9.73;;
20857;SDS011;10589;53.636;10.012;2022-08-25T09:00:43;11.43;;;10.23;;
20857;SDS011;10589;53.636;10.012;2022-08-25T09:03:15;11.65;;;9.52;;
20857;SDS011;10589;53.636;10.012;2022-08-25T09:05:48;11.70;;;9.18;;
20857;SDS011;10589;53.636;10.012;2022-08-25T09:08:15;12.38;;;10.02;;
20857;SDS011;10589;53.636;10.012;2022-08-25T09:13:38;9.00;;;7.18;;
20857;SDS011;10589;53.636;10.012;2022-08-25T09:16:26;10.38;;;9.02;;
20857;SDS011;10589;53.636;10.012;2022-08-25T09:29:46;16.05;;;10.07;;
20857;SDS011;10589;53.636;10.012;2022-08-25T09:32:31;11.73;;;10.63;;
20857;SDS011;10589;53.636;10.012;2022-08-25T09:35:00;10.25;;;9.23;;
20857;SDS011;10589;53.636;10.012;2022-08-25T09:37:27;14.18;;;10.93;;
20857;SDS011;10589;53.636;10.012;2022-08-25T09:39:52;17.73;;;11.40;;
20857;SDS011;10589;53.636;10.012;2022-08-25T09:42:18;10.93;;;9.82;;
20857;SDS011;10589;53.636;10.012;2022-08-25T09:44:45;14.02;;;9.85;;
20857;SDS011;10589;53.636;10.012;2022-08-25T09:49:58;8.93;;;8.05;;
20857;SDS011;10589;53.636;10.012;2022-08-25T09:54:50;9.18;;;6.55;;
20857;SDS011;10589;53.636;10.012;2022-08-25T09:57:26;7.47;;;6.57;;
20857;SDS011;10589;53.636;10.012;2022-08-25T10:08:30;8.75;;;6.32;;
20857;SDS011;10589;53.636;10.012;2022-08-25T10:11:33;8.50;;;4.82;;
20857;SDS011;10589;53.636;10.012;2022-08-25T10:14:19;5.65;;;4.10;;
20857;SDS011;10589;53.636;10.012;2022-08-25T10:16:45;8.43;;;4.00;;
20857;SDS011;10589;53.636;10.012;2022-08-25T10:19:26;9.57;;;4.28;;
20857;SDS011;10589;53.636;10.012;2022-08-25T10:22:04;6.25;;;3.35;;
20857;SDS011;10589;53.636;10.012;2022-08-25T10:24:30;6.18;;;3.40;;
20857;SDS011;10589;53.636;10.012;2022-08-25T10:30:29;6.20;;;3.30;;
20857;SDS011;10589;53.636;10.012;2022-08-25T10:35:33;7.80;;;3.28;;
20857;SDS011;10589;53.636;10.012;2022-08-25T10:46:32;5.03;;;2.80;;
20857;SDS011;10589;53.636;10.012;2022-08-25T10:49:35;6.47;;;3.15;;
20857;SDS011;10589;53.636;10.012;2022-08-25T10:52:11;5.88;;;2.65;;
20857;SDS011;10589;53.636;10.012;2022-08-25T11:05:06;6.85;;;3.22;;
20857;SDS011;10589;53.636;10.012;2022-08-25T11:10:07;6.15;;;3.30;;
20857;SDS011;10589;53.636;10.012;2022-08-25T11:12:38;8.35;;;3.33;;
20857;SDS011;10589;53.636;10.012;2022-08-25T11:15:09;8.68;;;2.83;;
20857;SDS011;10589;53.636;10.012;2022-08-25T11:17:45;8.55;;;3.15;;
20857;SDS011;10589;53.636;10.012;2022-08-25T11:20:26;6.85;;;3.25;;
20857;SDS011;10589;53.636;10.012;2022-08-25T11:26:02;7.20;;;3.13;;
20857;SDS011;10589;53.636;10.012;2022-08-25T11:28:39;7.47;;;2.85;;
20857;SDS011;10589;53.636;10.012;2022-08-25T11:31:06;6.65;;;2.75;;
20857;SDS011;10589;53.636;10.012;2022-08-25T11:33:34;4.90;;;2.90;;
20857;SDS011;10589;53.636;10.012;2022-08-25T11:36:13;8.70;;;2.72;;
20857;SDS011;10589;53.636;10.012;2022-08-25T11:41:25;5.60;;;2.40;;
20857;SDS011;10589;53.636;10.012;2022-08-25T11:44:00;6.70;;;2.63;;
20857;SDS011;10589;53.636;10.012;2022-08-25T11:47:04;5.82;;;2.47;;
20857;SDS011;10589;53.636;10.012;2022-08-25T11:55:04;4.97;;;2.50;;
20857;SDS011;10589;53.636;10.012;2022-08-25T11:57:39;7.55;;;2.85;;
20857;SDS011;10589;53.636;10.012;2022-08-25T12:02:39;5.05;;;2.50;;
20857;SDS011;10589;53.636;10.012;2022-08-25T12:05:10;7.45;;;2.75;;
20857;SDS011;10589;53.636;10.012;2022-08-25T12:10:22;5.53;;;2.60;;
20857;SDS011;10589;53.636;10.012;2022-08-25T12:26:17;9.90;;;2.47;;
20857;SDS011;10589;53.636;10.012;2022-08-25T12:28:46;6.00;;;2.20;;
20857;SDS011;10589;53.636;10.012;2022-08-25T12:36:58;4.18;;;2.30;;
20857;SDS011;10589;53.636;10.012;2022-08-25T12:39:35;6.50;;;2.10;;
20857;SDS011;10589;53.636;10.012;2022-08-25T12:42:06;8.82;;;2.30;;
20857;SDS011;10589;53.636;10.012;2022-08-25T12:44:48;4.50;;;1.90;;
20857;SDS011;10589;53.636;10.012;2022-08-25T12:47:44;4.05;;;2.38;;
20857;SDS011;10589;53.636;10.012;2022-08-25T12:53:21;7.20;;;1.88;;
20857;SDS011;10589;53.636;10.012;2022-08-25T12:56:05;5.45;;;2.33;;
20857;SDS011;10589;53.636;10.012;2022-08-25T12:59:00;5.63;;;2.20;;
20857;SDS011;10589;53.636;10.012;2022-08-25T13:06:47;5.18;;;1.88;;
20857;SDS011;10589;53.636;10.012;2022-08-25T13:12:11;5.97;;;1.98;;
20857;SDS011;10589;53.636;10.012;2022-08-25T13:14:39;4.95;;;2.17;;
20857;SDS011;10589;53.636;10.012;2022-08-25T13:17:06;3.13;;;1.73;;
20857;SDS011;10589;53.636;10.012;2022-08-25T13:19:33;4.63;;;1.70;;
20857;SDS011;10589;53.636;10.012;2022-08-25T13:22:00;3.33;;;1.80;;
20857;SDS011;10589;53.636;10.012;2022-08-25T13:24:38;5.88;;;1.58;;
20857;SDS011;10589;53.636;10.012;2022-08-25T13:27:07;4.15;;;1.80;;
20857;SDS011;10589;53.636;10.012;2022-08-25T13:29:35;5.18;;;1.85;;
20857;SDS011;10589;53.636;10.012;2022-08-25T13:32:15;4.60;;;1.70;;
20857;SDS011;10589;53.636;10.012;2022-08-25T13:34:48;4.28;;;1.90;;
20857;SDS011;10589;53.636;10.012;2022-08-25T13:37:17;4.95;;;1.80;;
20857;SDS011;10589;53.636;10.012;2022-08-25T13:40:09;4.30;;;2.17;;
20857;SDS011;10589;53.636;10.012;2022-08-25T13:42:55;5.28;;;1.80;;
20857;SDS011;10589;53.636;10.012;2022-08-25T13:45:25;5.15;;;2.00;;
20857;SDS011;10589;53.636;10.012;2022-08-25T13:47:53;7.35;;;2.38;;
20857;SDS011;10589;53.636;10.012;2022-08-25T13:50:31;4.25;;;1.90;;
20857;SDS011;10589;53.636;10.012;2022-08-25T13:53:00;4.47;;;1.67;;
20857;SDS011;10589;53.636;10.012;2022-08-25T13:58:03;4.00;;;1.83;;
20857;SDS011;10589;53.636;10.012;2022-08-25T14:00:32;2.38;;;1.90;;
20857;SDS011;10589;53.636;10.012;2022-08-25T14:03:04;4.00;;;1.98;;
20857;SDS011;10589;53.636;10.012;2022-08-25T14:05:38;5.40;;;2.00;;
20857;SDS011;10589;53.636;10.012;2022-08-25T14:08:06;4.82;;;1.80;;
20857;SDS011;10589;53.636;10.012;2022-08-25T14:11:05;3.08;;;1.73;;
20857;SDS011;10589;53.636;10.012;2022-08-25T14:13:33;5.35;;;1.65;;
20857;SDS011;10589;53.636;10.012;2022-08-25T14:16:12;4.90;;;1.80;;
20857;SDS011;10589;53.636;10.012;2022-08-25T14:18:48;5.75;;;1.80;;
20857;SDS011;10589;53.636;10.012;2022-08-25T14:21:16;4.85;;;1.80;;
20857;SDS011;10589;53.636;10.012;2022-08-25T14:23:44;3.60;;;1.50;;
20857;SDS011;10589;53.636;10.012;2022-08-25T14:26:10;5.18;;;1.70;;
20857;SDS011;10589;53.636;10.012;2022-08-25T14:28:35;3.92;;;1.73;;
20857;SDS011;10589;53.636;10.012;2022-08-25T14:31:45;6.63;;;1.92;;
20857;SDS011;10589;53.636;10.012;2022-08-25T14:33:56;6.18;;;1.83;;
20857;SDS011;10589;53.636;10.012;2022-08-25T14:36:25;3.80;;;1.77;;
20857;SDS011;10589;53.636;10.012;2022-08-25T14:38:54;4.65;;;2.20;;
20857;SDS011;10589;53.636;10.012;2022-08-25T14:41:20;7.18;;;2.03;;
20857;SDS011;10589;53.636;10.012;2022-08-25T14:43:47;4.82;;;2.40;;
20857;SDS011;10589;53.636;10.012;2022-08-25T14:46:17;3.63;;;2.33;;
20857;SDS011;10589;53.636;10.012;2022-08-25T14:48:46;4.45;;;2.20;;
20857;SDS011;10589;53.636;10.012;2022-08-25T14:51:14;6.57;;;2.78;;
20857;SDS011;10589;53.636;10.012;2022-08-25T14:53:41;4.47;;;2.58;;
20857;SDS011;10589;53.636;10.012;2022-08-25T14:56:07;4.45;;;2.45;;
20857;SDS011;10589;53.636;10.012;2022-08-25T14:58:33;6.78;;;2.63;;
20857;SDS011;10589;53.636;10.012;2022-08-25T15:00:59;3.72;;;2.13;;
20857;SDS011;10589;53.636;10.012;2022-08-25T15:03:28;6.70;;;2.20;;
20857;SDS011;10589;53.636;10.012;2022-08-25T15:05:58;6.20;;;2.33;;
20857;SDS011;10589;53.636;10.012;2022-08-25T15:08:24;6.32;;;2.50;;
20857;SDS011;10589;53.636;10.012;2022-08-25T15:11:08;5.80;;;2.20;;
20857;SDS011;10589;53.636;10.012;2022-08-25T15:13:34;3.05;;;2.38;;
20857;SDS011;10589;53.636;10.012;2022-08-25T15:16:00;7.25;;;2.53;;
20857;SDS011;10589;53.636;10.012;2022-08-25T15:18:26;6.80;;;2.70;;
20857;SDS011;10589;53.636;10.012;2022-08-25T15:20:52;6.35;;;2.40;;
20857;SDS011;10589;53.636;10.012;2022-08-25T15:23:18;4.78;;;2.25;;
20857;SDS011;10589;53.636;10.012;2022-08-25T15:25:44;4.30;;;2.40;;
20857;SDS011;10589;53.636;10.012;2022-08-25T15:28:12;3.97;;;2.50;;
20857;SDS011;10589;53.636;10.012;2022-08-25T15:30:38;9.13;;;4.07;;
20857;SDS011;10589;53.636;10.012;2022-08-25T15:33:03;6.40;;;2.92;;
20857;SDS011;10589;53.636;10.012;2022-08-25T15:35:29;4.93;;;4.28;;
20857;SDS011;10589;53.636;10.012;2022-08-25T15:37:55;7.35;;;2.85;;
20857;SDS011;10589;53.636;10.012;2022-08-25T15:40:21;9.77;;;2.90;;
20857;SDS011;10589;53.636;10.012;2022-08-25T15:42:46;3.92;;;2.47;;
20857;SDS011;10589;53.636;10.012;2022-08-25T15:45:12;5.60;;;2.65;;
20857;SDS011;10589;53.636;10.012;2022-08-25T15:47:38;5.05;;;2.53;;
20857;SDS011;10589;53.636;10.012;2022-08-25T15:50:05;6.60;;;2.67;;
20857;SDS011;10589;53.636;10.012;2022-08-25T15:52:38;7.15;;;2.38;;
20857;SDS011;10589;53.636;10.012;2022-08-25T15:55:04;4.82;;;2.65;;
20857;SDS011;10589;53.636;10.012;2022-08-25T15:57:30;7.80;;;2.50;;
20857;SDS011;10589;53.636;10.012;2022-08-25T15:59:56;5.00;;;2.90;;
20857;SDS011;10589;53.636;10.012;2022-08-25T16:02:23;4.75;;;2.65;;
20857;SDS011;10589;53.636;10.012;2022-08-25T16:04:49;3.55;;;2.50;;
20857;SDS011;10589;53.636;10.012;2022-08-25T16:07:17;5.60;;;2.75;;
20857;SDS011;10589;53.636;10.012;2022-08-25T16:09:43;7.55;;;2.30;;
20857;SDS011;10589;53.636;10.012;2022-08-25T16:12:08;4.72;;;2.38;;
20857;SDS011;10589;53.636;10.012;2022-08-25T16:14:34;8.30;;;2.50;;
20857;SDS011;10589;53.636;10.012;2022-08-25T16:17:01;6.40;;;2.70;;
20857;SDS011;10589;53.636;10.012;2022-08-25T16:19:28;6.10;;;2.30;;
20857;SDS011;10589;53.636;10.012;2022-08-25T16:21:53;6.57;;;2.50;;
20857;SDS011;10589;53.636;10.012;2022-08-25T16:24:20;10.00;;;2.53;;
20857;SDS011;10589;53.636;10.012;2022-08-25T16:26:45;5.28;;;2.88;;
20857;SDS011;10589;53.636;10.012;2022-08-25T16:29:11;8.52;;;2.45;;
20857;SDS011;10589;53.636;10.012;2022-08-25T16:31:38;4.45;;;2.47;;
20857;SDS011;10589;53.636;10.012;2022-08-25T16:34:04;4.43;;;2.38;;
20857;SDS011;10589;53.636;10.012;2022-08-25T16:36:30;4.93;;;2.30;;
20857;SDS011;10589;53.636;10.012;2022-08-25T16:38:56;6.75;;;2.22;;
20857;SDS011;10589;53.636;10.012;2022-08-25T16:41:23;3.67;;;2.10;;
20857;SDS011;10589;53.636;10.012;2022-08-25T16:43:51;8.98;;;2.42;;
20857;SDS011;10589;53.636;10.012;2022-08-25T16:46:18;5.32;;;2.03;;
20857;SDS011;10589;53.636;10.012;2022-08-25T16:48:45;3.88;;;2.10;;
20857;SDS011;10589;53.636;10.012;2022-08-25T16:51:15;6.97;;;2.55;;
20857;SDS011;10589;53.636;10.012;2022-08-25T16:53:42;3.15;;;2.17;;
20857;SDS011;10589;53.636;10.012;2022-08-25T16:56:27;6.88;;;2.63;;
20857;SDS011;10589;53.636;10.012;2022-08-25T16:58:54;4.10;;;2.00;;
20857;SDS011;10589;53.636;10.012;2022-08-25T17:01:21;7.47;;;2.55;;
20857;SDS011;10589;53.636;10.012;2022-08-25T17:03:52;5.63;;;2.28;;
20857;SDS011;10589;53.636;10.012;2022-08-25T17:06:20;5.32;;;2.58;;
20857;SDS011;10589;53.636;10.012;2022-08-25T17:08:47;6.40;;;2.53;;
20857;SDS011;10589;53.636;10.012;2022-08-25T17:13:49;8.45;;;3.00;;
20857;SDS011;10589;53.636;10.012;2022-08-25T17:16:16;3.80;;;2.65;;
20857;SDS011;10589;53.636;10.012;2022-08-25T17:18:43;5.07;;;2.67;;
20857;SDS011;10589;53.636;10.012;2022-08-25T17:21:10;5.80;;;2.97;;
20857;SDS011;10589;53.636;10.012;2022-08-25T17:23:38;5.55;;;3.20;;
20857;SDS011;10589;53.636;10.012;2022-08-25T17:26:07;8.90;;;3.35;;
20857;SDS011;10589;53.636;10.012;2022-08-25T17:28:35;10.63;;;3.10;;
20857;SDS011;10589;53.636;10.012;2022-08-25T17:31:02;5.97;;;3.10;;
20857;SDS011;10589;53.636;10.012;2022-08-25T17:33:27;6.75;;;2.90;;
20857;SDS011;10589;53.636;10.012;2022-08-25T17:35:54;6.22;;;3.30;;
20857;SDS011;10589;53.636;10.012;2022-08-25T17:38:21;11.18;;;3.10;;
20857;SDS011;10589;53.636;10.012;2022-08-25T17:40:53;6.85;;;3.47;;
20857;SDS011;10589;53.636;10.012;2022-08-25T17:43:21;6.38;;;3.30;;
20857;SDS011;10589;53.636;10.012;2022-08-25T17:45:48;5.78;;;2.70;;
20857;SDS011;10589;53.636;10.012;2022-08-25T17:48:15;12.77;;;2.80;;
20857;SDS011;10589;53.636;10.012;2022-08-25T17:50:42;6.07;;;2.95;;
20857;SDS011;10589;53.636;10.012;2022-08-25T17:53:08;8.65;;;3.08;;
20857;SDS011;10589;53.636;10.012;2022-08-25T17:55:36;7.47;;;3.22;;
20857;SDS011;10589;53.636;10.012;2022-08-25T17:58:02;10.15;;;3.42;;
20857;SDS011;10589;53.636;10.012;2022-08-25T18:00:28;8.25;;;3.03;;
20857;SDS011;10589;53.636;10.012;2022-08-25T18:02:56;5.18;;;2.72;;
20857;SDS011;10589;53.636;10.012;2022-08-25T18:05:23;10.73;;;3.30;;
20857;SDS011;10589;53.636;10.012;2022-08-25T18:07:49;7.18;;;2.95;;
20857;SDS011;10589;53.636;10.012;2022-08-25T18:10:14;8.13;;;3.30;;
20857;SDS011;10589;53.636;10.012;2022-08-25T18:12:41;6.82;;;3.00;;
20857;SDS011;10589;53.636;10.012;2022-08-25T18:15:08;6.55;;;3.28;;
20857;SDS011;10589;53.636;10.012;2022-08-25T18:17:34;10.02;;;3.42;;
20857;SDS011;10589;53.636;10.012;2022-08-25T18:20:01;8.75;;;3.30;;
20857;SDS011;10589;53.636;10.012;2022-08-25T18:22:30;13.68;;;3.08;;
20857;SDS011;10589;53.636;10.012;2022-08-25T18:24:56;5.43;;;3.20;;
20857;SDS011;10589;53.636;10.012;2022-08-25T18:27:23;13.30;;;3.95;;
20857;SDS011;10589;53.636;10.012;2022-08-25T18:29:49;8.40;;;2.90;;
20857;SDS011;10589;53.636;10.012;2022-08-25T18:32:15;11.48;;;3.47;;
20857;SDS011;10589;53.636;10.012;2022-08-25T18:34:42;9.38;;;3.65;;
20857;SDS011;10589;53.636;10.012;2022-08-25T18:37:07;11.43;;;3.50;;
20857;SDS011;10589;53.636;10.012;2022-08-25T18:39:52;7.97;;;3.70;;
20857;SDS011;10589;53.636;10.012;2022-08-25T18:42:36;11.10;;;3.90;;
20857;SDS011;10589;53.636;10.012;2022-08-25T18:45:03;11.05;;;3.75;;
20857;SDS011;10589;53.636;10.012;2022-08-25T18:47:30;11.23;;;3.88;;
20857;SDS011;10589;53.636;10.012;2022-08-25T18:49:56;8.63;;;3.58;;
20857;SDS011;10589;53.636;10.012;2022-08-25T18:52:22;6.47;;;3.75;;
20857;SDS011;10589;53.636;10.012;2022-08-25T18:54:48;5.72;;;3.70;;
20857;SDS011;10589;53.636;10.012;2022-08-25T18:57:13;7.72;;;3.50;;
20857;SDS011;10589;53.636;10.012;2022-08-25T18:59:39;14.48;;;4.22;;
20857;SDS011;10589;53.636;10.012;2022-08-25T19:02:05;11.30;;;4.03;;
20857;SDS011;10589;53.636;10.012;2022-08-25T19:04:33;7.55;;;3.22;;
20857;SDS011;10589;53.636;10.012;2022-08-25T19:06:59;8.30;;;3.83;;
20857;SDS011;10589;53.636;10.012;2022-08-25T19:09:26;6.50;;;3.45;;
20857;SDS011;10589;53.636;10.012;2022-08-25T19:11:52;9.18;;;4.00;;
20857;SDS011;10589;53.636;10.012;2022-08-25T19:14:18;8.35;;;4.13;;
20857;SDS011;10589;53.636;10.012;2022-08-25T19:16:44;8.77;;;4.18;;
20857;SDS011;10589;53.636;10.012;2022-08-25T19:19:10;10.80;;;3.65;;
20857;SDS011;10589;53.636;10.012;2022-08-25T19:21:40;8.52;;;3.75;;
20857;SDS011;10589;53.636;10.012;2022-08-25T19:24:07;9.95;;;4.10;;
20857;SDS011;10589;53.636;10.012;2022-08-25T19:26:34;10.32;;;3.75;;
20857;SDS011;10589;53.636;10.012;2022-08-25T19:29:01;10.23;;;4.18;;
20857;SDS011;10589;53.636;10.012;2022-08-25T19:31:29;7.40;;;4.05;;
20857;SDS011;10589;53.636;10.012;2022-08-25T19:33:55;9.32;;;4.03;;
20857;SDS011;10589;53.636;10.012;2022-08-25T19:36:24;12.23;;;4.40;;
20857;SDS011;10589;53.636;10.012;2022-08-25T19:38:51;6.10;;;3.75;;
20857;SDS011;10589;53.636;10.012;2022-08-25T19:41:19;8.50;;;4.38;;
20857;SDS011;10589;53.636;10.012;2022-08-25T19:43:46;10.77;;;3.65;;
20857;SDS011;10589;53.636;10.012;2022-08-25T19:46:13;14.10;;;3.92;;
20857;SDS011;10589;53.636;10.012;2022-08-25T19:48:40;11.65;;;4.07;;
20857;SDS011;10589;53.636;10.012;2022-08-25T19:51:06;11.50;;;4.93;;
20857;SDS011;10589;53.636;10.012;2022-08-25T19:53:32;5.40;;;3.47;;
20857;SDS011;10589;53.636;10.012;2022-08-25T19:55:59;5.90;;;3.97;;
20857;SDS011;10589;53.636;10.012;2022-08-25T19:58:26;14.15;;;4.60;;
20857;SDS011;10589;53.636;10.012;2022-08-25T20:00:52;11.10;;;4.22;;
20857;SDS011;10589;53.636;10.012;2022-08-25T20:03:18;8.25;;;4.13;;
20857;SDS011;10589;53.636;10.012;2022-08-25T20:05:45;12.02;;;4.57;;
20857;SDS011;10589;53.636;10.012;2022-08-25T20:08:12;10.38;;;3.90;;
20857;SDS011;10589;53.636;10.012;2022-08-25T20:10:38;6.75;;;4.57;;
20857;SDS011;10589;53.636;10.012;2022-08-25T20:13:04;13.00;;;4.43;;
20857;SDS011;10589;53.636;10.012;2022-08-25T20:15:31;10.07;;;4.55;;
20857;SDS011;10589;53.636;10.012;2022-08-25T20:17:57;11.93;;;4.78;;
20857;SDS011;10589;53.636;10.012;2022-08-25T20:20:24;9.68;;;4.90;;
20857;SDS011;10589;53.636;10.012;2022-08-25T20:22:51;9.40;;;4.50;;